Waidhofen an der Ybbs, Austria
Current Conditions -  °F | °C
As of 1:50 PM on Sunday 23 Nov 2014 (Local Time) from LOWL Reporting Station
Broken Clouds Broken Clouds  
Wind Chill: 35°   Ceiling: 800
Heat Index: 41°   Visibility: 4mi
Dew Point: 37°   Wind: 10mph
Humidity: 87%   Direction: 110°ESE
Pressure: 30.27"   Gusts: NA
Location:  47.96°N, 14.77°E
Report Text: LOWL 231150Z 11009KT 7000 FEW007 BKN008 05/03 Q1025 NOSIG
Loading
Personal Weather Stations






























Interactive Weather Map New forecast layout! Learn more

10-Day Weather Forecast

Advertisements
Track Severe Weather on mobile